createdAt,value
2017-03-23T00:00:14.660Z,0
2017-03-23T00:01:14.675Z,0
2017-03-23T00:02:15.006Z,0
2017-03-23T00:03:14.707Z,0
2017-03-23T00:04:14.727Z,0
2017-03-23T00:05:15.052Z,0
2017-03-23T00:06:14.759Z,0
2017-03-23T00:07:14.772Z,0
2017-03-23T00:08:14.789Z,0
2017-03-23T00:09:14.807Z,0
2017-03-23T00:10:15.133Z,0
2017-03-23T00:11:14.521Z,0
2017-03-23T00:12:14.856Z,0
2017-03-23T00:13:15.183Z,0
2017-03-23T00:14:14.888Z,0
2017-03-23T00:15:14.900Z,0
2017-03-23T00:16:14.912Z,0
2017-03-23T00:17:14.936Z,0
2017-03-23T00:18:14.944Z,0
2017-03-23T00:19:15.276Z,0
2017-03-23T00:20:14.978Z,0
2017-03-23T00:21:15.303Z,0
2017-03-23T00:22:15.338Z,0
2017-03-23T00:23:15.337Z,0
2017-03-23T00:24:15.361Z,0
2017-03-23T00:25:15.056Z,0
2017-03-23T00:26:15.386Z,0
2017-03-23T00:27:15.086Z,0
2017-03-23T00:28:15.417Z,0
2017-03-23T00:29:15.118Z,0
2017-03-23T00:30:15.132Z,0
2017-03-23T00:31:15.152Z,0
2017-03-23T00:32:15.168Z,0
2017-03-23T00:33:15.181Z,0
2017-03-23T00:34:14.887Z,0
2017-03-23T00:35:15.209Z,0
2017-03-23T00:36:15.230Z,0
2017-03-23T00:37:15.562Z,0
2017-03-23T00:38:15.307Z,0
2017-03-23T00:39:15.609Z,0
2017-03-23T00:40:15.605Z,0
2017-03-23T00:41:15.684Z,0
2017-03-23T00:42:15.639Z,0
2017-03-23T00:43:15.650Z,0
2017-03-23T00:44:15.367Z,0
2017-03-23T00:45:15.374Z,0
2017-03-23T00:46:15.699Z,0
2017-03-23T00:47:15.404Z,0
2017-03-23T00:48:15.728Z,0
2017-03-23T00:49:15.748Z,0
2017-03-23T00:50:15.772Z,0
2017-03-23T00:51:15.775Z,0
2017-03-23T00:52:15.793Z,0
2017-03-23T00:53:15.550Z,0
2017-03-23T00:54:15.836Z,0
2017-03-23T00:55:15.541Z,0
2017-03-23T00:56:15.850Z,0
2017-03-23T00:57:15.907Z,0
2017-03-23T00:58:15.884Z,0
2017-03-23T00:59:15.905Z,0
2017-03-23T01:00:15.921Z,0
2017-03-23T01:01:15.619Z,0
2017-03-23T01:02:15.652Z,0
2017-03-23T01:03:15.968Z,0
2017-03-23T01:04:15.988Z,0
2017-03-23T01:05:15.997Z,0
2017-03-23T01:06:16.013Z,0
2017-03-23T01:07:16.026Z,0
2017-03-23T01:08:16.044Z,0
2017-03-23T01:09:15.439Z,0
2017-03-23T01:10:16.072Z,0
2017-03-23T01:11:16.094Z,0
2017-03-23T01:12:15.836Z,0
2017-03-23T01:13:15.805Z,0
2017-03-23T01:14:15.824Z,0
2017-03-23T01:15:16.150Z,0
2017-03-23T01:16:16.169Z,0
2017-03-23T01:17:16.187Z,0
2017-03-23T01:18:15.884Z,0
2017-03-23T01:19:16.214Z,0
2017-03-23T01:20:15.917Z,0
2017-03-23T01:21:15.933Z,0
2017-03-23T01:22:15.954Z,0
2017-03-23T01:23:15.987Z,0
2017-03-23T01:24:16.333Z,0
2017-03-23T01:25:16.305Z,0
2017-03-23T01:26:16.325Z,0
2017-03-23T01:27:16.337Z,0
2017-03-23T01:28:16.352Z,0
2017-03-23T01:29:16.370Z,0
2017-03-23T01:30:16.388Z,0
2017-03-23T01:31:16.405Z,0
2017-03-23T01:32:16.428Z,0
2017-03-23T01:33:16.433Z,0
2017-03-23T01:34:16.452Z,0
2017-03-23T01:35:16.470Z,0
2017-03-23T01:36:16.171Z,0
2017-03-23T01:37:16.498Z,0
2017-03-23T01:38:16.202Z,0
2017-03-23T01:39:16.529Z,0
2017-03-23T01:40:16.545Z,0
2017-03-23T01:41:16.557Z,0
2017-03-23T01:42:16.578Z,0
2017-03-23T01:43:16.586Z,0
2017-03-23T01:44:16.611Z,0
2017-03-23T01:45:16.621Z,0
2017-03-23T01:46:16.640Z,0
2017-03-23T01:47:16.652Z,0
2017-03-23T01:48:16.665Z,0
2017-03-23T01:49:16.679Z,0
2017-03-23T01:50:16.411Z,0
2017-03-23T01:51:16.712Z,0
2017-03-23T01:52:16.735Z,0
2017-03-23T01:53:16.745Z,0
2017-03-23T01:54:16.759Z,0
2017-03-23T01:55:16.783Z,0
2017-03-23T01:56:16.793Z,0
2017-03-23T01:57:16.186Z,0
2017-03-23T01:58:16.820Z,0
2017-03-23T01:59:16.839Z,0
2017-03-23T02:00:16.861Z,0
2017-03-23T02:01:16.555Z,0
2017-03-23T02:02:16.886Z,0
2017-03-23T02:03:16.585Z,0
2017-03-23T02:04:16.911Z,0
2017-03-23T02:05:16.935Z,0
2017-03-23T02:06:17.071Z,0
2017-03-23T02:07:16.963Z,0
2017-03-23T02:08:16.984Z,0
2017-03-23T02:09:16.996Z,0
2017-03-23T02:10:16.696Z,0
2017-03-23T02:11:17.028Z,0
2017-03-23T02:12:17.049Z,0
2017-03-23T02:13:17.062Z,0
2017-03-23T02:14:17.074Z,0
2017-03-23T02:15:17.090Z,0
2017-03-23T02:16:17.106Z,0
2017-03-23T02:17:17.118Z,0
2017-03-23T02:18:17.141Z,0
2017-03-23T02:19:17.148Z,0
2017-03-23T02:20:16.859Z,0
2017-03-23T02:21:17.183Z,0
2017-03-23T02:22:17.201Z,0
2017-03-23T02:23:17.213Z,0
2017-03-23T02:24:17.230Z,0
2017-03-23T02:25:17.244Z,0
2017-03-23T02:26:17.253Z,0
2017-03-23T02:27:17.274Z,0
2017-03-23T02:28:17.299Z,0
2017-03-23T02:29:17.306Z,0
2017-03-23T02:30:17.324Z,0
2017-03-23T02:31:17.338Z,0
2017-03-23T02:32:17.355Z,0
2017-03-23T02:33:17.373Z,0
2017-03-23T02:34:17.076Z,0
2017-03-23T02:35:17.401Z,0
2017-03-23T02:36:17.488Z,0
2017-03-23T02:37:17.486Z,0
2017-03-23T02:38:17.497Z,0
2017-03-23T02:39:17.504Z,0
2017-03-23T02:40:17.512Z,0
2017-03-23T02:41:17.522Z,0
2017-03-23T02:42:17.196Z,0
2017-03-23T02:43:17.529Z,0
2017-03-23T02:44:17.539Z,0
2017-03-23T02:45:17.557Z,0
2017-03-23T02:46:17.570Z,0
2017-03-23T02:47:17.692Z,0
2017-03-23T02:48:17.288Z,0
2017-03-23T02:49:17.632Z,0
2017-03-23T02:50:17.668Z,0
2017-03-23T02:51:17.650Z,0
2017-03-23T02:52:17.765Z,0
2017-03-23T02:53:17.774Z,0
2017-03-23T02:54:17.782Z,0
2017-03-23T02:55:17.791Z,0
2017-03-23T02:56:17.802Z,0
2017-03-23T02:57:17.822Z,0
2017-03-23T02:58:17.830Z,0
2017-03-23T02:59:17.839Z,0
2017-03-23T03:00:17.548Z,0
2017-03-23T03:01:17.857Z,0
2017-03-23T03:02:17.616Z,0
2017-03-23T03:03:17.625Z,0
2017-03-23T03:04:17.846Z,0
2017-03-23T03:05:17.862Z,0
2017-03-23T03:06:17.891Z,0
2017-03-23T03:07:17.901Z,0
2017-03-23T03:08:17.913Z,0
2017-03-23T03:09:17.931Z,0
2017-03-23T03:10:17.944Z,0
2017-03-23T03:11:17.722Z,0
2017-03-23T03:12:17.683Z,0
2017-03-23T03:13:17.989Z,0
2017-03-23T03:14:17.741Z,0
2017-03-23T03:15:17.761Z,0
2017-03-23T03:16:17.748Z,0
2017-03-23T03:17:17.763Z,0
2017-03-23T03:18:17.767Z,0
2017-03-23T03:19:18.074Z,0
2017-03-23T03:20:17.787Z,0
2017-03-23T03:21:17.799Z,0
2017-03-23T03:22:17.815Z,0
2017-03-23T03:23:17.829Z,0
2017-03-23T03:24:18.207Z,0
2017-03-23T03:25:17.863Z,0
2017-03-23T03:26:18.190Z,0
2017-03-23T03:27:18.205Z,0
2017-03-23T03:28:17.907Z,0
2017-03-23T03:29:18.243Z,0
2017-03-23T03:30:17.942Z,0
2017-03-23T03:31:18.267Z,0
2017-03-23T03:32:18.281Z,0
2017-03-23T03:33:18.291Z,0
2017-03-23T03:34:18.317Z,0
2017-03-23T03:35:18.334Z,0
2017-03-23T03:36:17.787Z,0
2017-03-23T03:37:18.042Z,0
2017-03-23T03:38:18.375Z,0
2017-03-23T03:39:18.386Z,0
2017-03-23T03:40:18.415Z,0
2017-03-23T03:41:18.423Z,0
2017-03-23T03:42:18.428Z,0
2017-03-23T03:43:18.453Z,0
2017-03-23T03:44:18.156Z,0
2017-03-23T03:45:18.487Z,0
2017-03-23T03:46:18.493Z,0
2017-03-23T03:47:18.560Z,0
2017-03-23T03:48:18.525Z,0
2017-03-23T03:49:18.546Z,0
2017-03-23T03:50:18.560Z,0
2017-03-23T03:51:18.583Z,0
2017-03-23T03:52:18.589Z,0
2017-03-23T03:53:18.609Z,0
2017-03-23T03:54:18.627Z,0
2017-03-23T03:55:18.635Z,0
2017-03-23T03:56:18.649Z,0
2017-03-23T03:57:18.674Z,0
2017-03-23T03:58:18.680Z,0
2017-03-23T03:59:18.731Z,0
2017-03-23T04:00:18.715Z,0
2017-03-23T04:01:18.726Z,0
2017-03-23T04:02:18.741Z,0
2017-03-23T04:03:18.764Z,0
2017-03-23T04:04:18.780Z,0
2017-03-23T04:05:18.796Z,0
2017-03-23T04:06:18.805Z,0
2017-03-23T04:07:18.826Z,0
2017-03-23T04:08:18.849Z,0
2017-03-23T04:09:18.848Z,0
2017-03-23T04:10:18.865Z,0
2017-03-23T04:11:18.876Z,0
2017-03-23T04:12:18.599Z,0
2017-03-23T04:13:18.923Z,0
2017-03-23T04:14:18.925Z,0
2017-03-23T04:15:18.941Z,0
2017-03-23T04:16:18.958Z,0
2017-03-23T04:17:18.969Z,0
2017-03-23T04:18:18.988Z,0
2017-03-23T04:19:18.999Z,0
2017-03-23T04:20:19.018Z,0
2017-03-23T04:21:19.033Z,0
2017-03-23T04:22:19.055Z,0
2017-03-23T04:23:19.063Z,0
2017-03-23T04:24:19.079Z,0
2017-03-23T04:25:19.089Z,0
2017-03-23T04:26:19.115Z,0
2017-03-23T04:27:19.135Z,0
2017-03-23T04:28:18.829Z,0
2017-03-23T04:29:19.156Z,0
2017-03-23T04:30:18.860Z,0
2017-03-23T04:31:18.869Z,0
2017-03-23T04:32:19.206Z,0
2017-03-23T04:33:19.216Z,0
2017-03-23T04:34:19.250Z,0
2017-03-23T04:35:19.244Z,0
2017-03-23T04:36:19.273Z,0
2017-03-23T04:37:19.273Z,0
2017-03-23T04:38:19.316Z,0
2017-03-23T04:39:19.316Z,0
2017-03-23T04:40:19.410Z,0
2017-03-23T04:41:19.443Z,0
2017-03-23T04:42:19.454Z,0
2017-03-23T04:43:19.454Z,0
2017-03-23T04:44:19.461Z,0
2017-03-23T04:45:19.469Z,0
2017-03-23T04:46:19.478Z,0
2017-03-23T04:47:19.487Z,0
2017-03-23T04:48:19.484Z,0
2017-03-23T04:49:19.495Z,0
2017-03-23T04:50:19.162Z,0
2017-03-23T04:51:19.572Z,0
2017-03-23T04:52:19.570Z,4
2017-03-23T04:53:19.210Z,4
2017-03-23T04:54:19.229Z,4
2017-03-23T04:55:19.244Z,0
2017-03-23T04:56:19.581Z,4
2017-03-23T04:57:19.671Z,4
2017-03-23T04:58:18.975Z,4
2017-03-23T04:59:19.613Z,8
2017-03-23T05:00:19.731Z,4
2017-03-23T05:01:19.822Z,8
2017-03-23T05:02:19.835Z,8
2017-03-23T05:03:19.396Z,8
2017-03-23T05:04:19.375Z,8
2017-03-23T05:05:19.393Z,12
2017-03-23T05:06:19.501Z,12
2017-03-23T05:07:19.736Z,8
2017-03-23T05:08:19.756Z,12
2017-03-23T05:09:19.778Z,12
2017-03-23T05:10:19.859Z,16
2017-03-23T05:11:19.484Z,16
2017-03-23T05:12:19.940Z,16
2017-03-23T05:13:19.200Z,16
2017-03-23T05:14:19.840Z,20
2017-03-23T05:15:19.546Z,20
2017-03-23T05:16:20.069Z,24
2017-03-23T05:17:19.668Z,24
2017-03-23T05:18:19.392Z,24
2017-03-23T05:19:19.673Z,28
2017-03-23T05:20:19.716Z,32
2017-03-23T05:21:19.639Z,36
2017-03-23T05:22:20.071Z,36
2017-03-23T05:23:19.976Z,40
2017-03-23T05:24:19.994Z,44
2017-03-23T05:25:20.011Z,44
2017-03-23T05:26:20.027Z,48
2017-03-23T05:27:20.044Z,52
2017-03-23T05:28:19.745Z,52
2017-03-23T05:29:20.066Z,52
2017-03-23T05:30:20.087Z,56
2017-03-23T05:31:19.785Z,60
2017-03-23T05:32:20.113Z,64
2017-03-23T05:33:20.136Z,68
2017-03-23T05:34:20.141Z,72
2017-03-23T05:35:20.162Z,80
2017-03-23T05:36:19.867Z,80
2017-03-23T05:37:19.566Z,88
2017-03-23T05:38:19.576Z,88
2017-03-23T05:39:20.226Z,92
2017-03-23T05:40:20.232Z,96
2017-03-23T05:41:20.251Z,104
2017-03-23T05:42:19.953Z,108
2017-03-23T05:43:20.313Z,116
2017-03-23T05:44:19.676Z,120
2017-03-23T05:45:20.309Z,128
2017-03-23T05:46:20.324Z,128
2017-03-23T05:47:20.038Z,136
2017-03-23T05:48:20.358Z,148
2017-03-23T05:49:20.370Z,152
2017-03-23T05:50:20.076Z,156
2017-03-23T05:51:20.405Z,160
2017-03-23T05:52:20.414Z,164
2017-03-23T05:53:20.435Z,168
2017-03-23T05:54:20.136Z,172
2017-03-23T05:55:20.463Z,172
2017-03-23T05:56:20.479Z,176
2017-03-23T05:57:20.203Z,184
2017-03-23T05:58:20.507Z,196
2017-03-23T05:59:19.899Z,200
2017-03-23T06:00:20.542Z,208
2017-03-23T06:01:20.560Z,216
2017-03-23T06:02:20.264Z,224
2017-03-23T06:03:20.276Z,232
2017-03-23T06:04:19.976Z,236
2017-03-23T06:05:20.301Z,236
2017-03-23T06:06:20.629Z,232
2017-03-23T06:07:20.362Z,224
2017-03-23T06:08:20.350Z,216
2017-03-23T06:09:20.408Z,212
2017-03-23T06:10:20.691Z,204
2017-03-23T06:11:20.395Z,208
2017-03-23T06:12:20.720Z,212
2017-03-23T06:13:20.737Z,220
2017-03-23T06:14:20.752Z,228
2017-03-23T06:15:20.461Z,240
2017-03-23T06:16:20.780Z,244
2017-03-23T06:17:20.181Z,248
2017-03-23T06:18:20.808Z,260
2017-03-23T06:19:20.850Z,280
2017-03-23T06:20:20.844Z,304
2017-03-23T06:21:20.856Z,328
2017-03-23T06:22:20.874Z,352
2017-03-23T06:23:20.884Z,376
2017-03-23T06:24:20.910Z,400
2017-03-23T06:25:20.612Z,416
2017-03-23T06:26:20.933Z,416
2017-03-23T06:27:20.990Z,392
2017-03-23T06:28:20.963Z,352
2017-03-23T06:29:20.975Z,332
2017-03-23T06:30:20.682Z,320
2017-03-23T06:31:21.013Z,308
2017-03-23T06:32:21.027Z,284
2017-03-23T06:33:20.728Z,288
2017-03-23T06:34:21.050Z,308
2017-03-23T06:35:21.073Z,332
2017-03-23T06:36:21.085Z,360
2017-03-23T06:37:21.106Z,368
2017-03-23T06:38:21.112Z,360
2017-03-23T06:39:20.822Z,324
2017-03-23T06:40:20.837Z,292
2017-03-23T06:41:20.849Z,272
2017-03-23T06:42:21.174Z,264
2017-03-23T06:43:20.876Z,264
2017-03-23T06:44:20.892Z,276
2017-03-23T06:45:20.912Z,300
2017-03-23T06:46:21.240Z,340
2017-03-23T06:47:21.272Z,396
2017-03-23T06:48:21.265Z,484
2017-03-23T06:49:21.285Z,576
2017-03-23T06:50:21.380Z,652
2017-03-23T06:51:21.320Z,736
2017-03-23T06:52:21.334Z,832
2017-03-23T06:53:21.347Z,972
2017-03-23T06:54:21.369Z,1120
2017-03-23T06:55:21.372Z,1196
2017-03-23T06:56:21.077Z,1212
2017-03-23T06:57:21.411Z,1192
2017-03-23T06:58:21.120Z,1128
2017-03-23T06:59:21.440Z,1092
2017-03-23T07:00:21.457Z,1080
2017-03-23T07:01:21.191Z,1036
2017-03-23T07:02:21.485Z,984
2017-03-23T07:03:21.186Z,936
2017-03-23T07:04:21.217Z,936
2017-03-23T07:05:21.532Z,936
2017-03-23T07:06:21.547Z,928
2017-03-23T07:07:21.560Z,940
2017-03-23T07:08:21.268Z,1000
2017-03-23T07:09:21.592Z,1024
2017-03-23T07:10:21.610Z,1020
2017-03-23T07:11:21.626Z,1048
2017-03-23T07:12:21.641Z,1096
2017-03-23T07:13:21.651Z,1132
2017-03-23T07:14:21.665Z,1100
2017-03-23T07:15:21.731Z,1008
2017-03-23T07:16:21.074Z,936
2017-03-23T07:17:21.407Z,884
2017-03-23T07:18:21.728Z,860
2017-03-23T07:19:21.431Z,840
2017-03-23T07:20:21.448Z,824
2017-03-23T07:21:21.787Z,828
2017-03-23T07:22:21.790Z,844
2017-03-23T07:23:21.521Z,828
2017-03-23T07:24:21.512Z,804
2017-03-23T07:25:21.535Z,784
2017-03-23T07:26:21.543Z,832
2017-03-23T07:27:21.877Z,916
2017-03-23T07:28:21.892Z,996
2017-03-23T07:29:21.583Z,1040
2017-03-23T07:30:21.606Z,1040
2017-03-23T07:31:21.975Z,1096
2017-03-23T07:32:21.945Z,1160
2017-03-23T07:33:21.973Z,1220
2017-03-23T07:34:21.981Z,1272
2017-03-23T07:35:22.016Z,1328
2017-03-23T07:36:22.009Z,1376
2017-03-23T07:37:21.718Z,1392
2017-03-23T07:38:22.168Z,1400
2017-03-23T07:39:21.752Z,1444
2017-03-23T07:40:22.071Z,1448
2017-03-23T07:41:22.089Z,1424
2017-03-23T07:42:22.111Z,1412
2017-03-23T07:43:21.509Z,1428
2017-03-23T07:44:22.145Z,1436
2017-03-23T07:45:22.156Z,1428
2017-03-23T07:46:21.901Z,1464
2017-03-23T07:47:22.187Z,1524
2017-03-23T07:48:22.223Z,1564
2017-03-23T07:49:21.599Z,1604
2017-03-23T07:50:22.043Z,1616
2017-03-23T07:51:22.338Z,1604
2017-03-23T07:52:22.271Z,1632
2017-03-23T07:53:22.276Z,1540
2017-03-23T07:54:22.328Z,1568
2017-03-23T07:55:21.682Z,1568
2017-03-23T07:56:22.327Z,1532
2017-03-23T07:57:22.029Z,1516
2017-03-23T07:58:22.355Z,1484
2017-03-23T07:59:22.377Z,1464
2017-03-23T08:00:22.388Z,1456
2017-03-23T08:01:22.098Z,1468
2017-03-23T08:02:22.427Z,1476
2017-03-23T08:03:22.443Z,1532
2017-03-23T08:04:22.138Z,1568
2017-03-23T08:05:22.476Z,1612
2017-03-23T08:06:22.488Z,1684
2017-03-23T08:07:22.193Z,1728
2017-03-23T08:08:22.199Z,1768
2017-03-23T08:09:22.222Z,1792
2017-03-23T08:10:22.547Z,1692
2017-03-23T08:11:22.256Z,1536
2017-03-23T08:12:22.581Z,1488
2017-03-23T08:13:22.600Z,1376
2017-03-23T08:14:22.611Z,1268
2017-03-23T08:15:22.627Z,1252
2017-03-23T08:16:22.644Z,1360
2017-03-23T08:17:22.665Z,1384
2017-03-23T08:18:22.682Z,1516
2017-03-23T08:19:22.386Z,1432
2017-03-23T08:20:22.399Z,1392
2017-03-23T08:21:22.727Z,1540
2017-03-23T08:22:22.743Z,1660
2017-03-23T08:23:22.758Z,1624
2017-03-23T08:24:22.768Z,1564
2017-03-23T08:25:22.793Z,1560
2017-03-23T08:26:22.843Z,1492
2017-03-23T08:27:22.197Z,1380
2017-03-23T08:28:22.844Z,1232
2017-03-23T08:29:22.882Z,1116
2017-03-23T08:30:22.866Z,1080
2017-03-23T08:31:22.883Z,1032
2017-03-23T08:32:22.945Z,984
2017-03-23T08:33:22.606Z,860
2017-03-23T08:34:22.617Z,900
2017-03-23T08:35:22.951Z,940
2017-03-23T08:36:22.966Z,896
2017-03-23T08:37:22.668Z,868
2017-03-23T08:38:22.689Z,824
2017-03-23T08:39:22.699Z,760
2017-03-23T08:40:23.058Z,708
2017-03-23T08:41:23.088Z,692
2017-03-23T08:42:23.062Z,668
2017-03-23T08:43:23.085Z,668
2017-03-23T08:44:23.106Z,644
2017-03-23T08:45:23.117Z,592
2017-03-23T08:46:23.138Z,616
2017-03-23T08:47:22.830Z,676
2017-03-23T08:48:23.171Z,776
2017-03-23T08:49:23.085Z,872
2017-03-23T08:50:23.198Z,880
2017-03-23T08:51:22.901Z,844
2017-03-23T08:52:22.915Z,836
2017-03-23T08:53:22.928Z,776
2017-03-23T08:54:22.938Z,892
2017-03-23T08:55:23.283Z,796
2017-03-23T08:56:23.292Z,776
2017-03-23T08:57:22.992Z,812
2017-03-23T08:58:23.326Z,792
2017-03-23T08:59:22.716Z,780
2017-03-23T09:00:23.383Z,776
2017-03-23T09:01:23.373Z,868
2017-03-23T09:02:23.385Z,876
2017-03-23T09:03:23.402Z,920
2017-03-23T09:04:23.100Z,908
2017-03-23T09:05:23.433Z,868
2017-03-23T09:06:23.451Z,840
2017-03-23T09:07:23.646Z,820
2017-03-23T09:08:23.654Z,844
2017-03-23T09:09:23.641Z,824
2017-03-23T09:10:23.340Z,812
2017-03-23T09:11:23.685Z,808
2017-03-23T09:12:23.677Z,808
2017-03-23T09:13:23.470Z,828
2017-03-23T09:14:23.682Z,852
2017-03-23T09:15:23.651Z,836
2017-03-23T09:16:23.658Z,812
2017-03-23T09:17:23.747Z,796
2017-03-23T09:18:23.683Z,796
2017-03-23T09:19:23.681Z,792
2017-03-23T09:20:23.728Z,784
2017-03-23T09:21:23.706Z,768
2017-03-23T09:22:23.712Z,732
2017-03-23T09:23:23.729Z,708
2017-03-23T09:24:23.841Z,696
2017-03-23T09:25:23.449Z,688
2017-03-23T09:26:23.818Z,672
2017-03-23T09:27:23.995Z,684
2017-03-23T09:28:23.811Z,656
2017-03-23T09:29:23.854Z,628
2017-03-23T09:30:23.554Z,616
2017-03-23T09:31:23.857Z,616
2017-03-23T09:32:23.565Z,628
2017-03-23T09:33:23.893Z,648
2017-03-23T09:34:23.913Z,704
2017-03-23T09:35:23.923Z,728
2017-03-23T09:36:23.941Z,724
2017-03-23T09:37:23.966Z,700
2017-03-23T09:38:23.973Z,696
2017-03-23T09:39:23.988Z,704
2017-03-23T09:40:23.691Z,732
2017-03-23T09:41:23.709Z,756
2017-03-23T09:42:24.039Z,768
2017-03-23T09:43:24.055Z,776
2017-03-23T09:44:24.071Z,780
2017-03-23T09:45:23.773Z,804
2017-03-23T09:46:24.113Z,876
2017-03-23T09:47:24.122Z,996
2017-03-23T09:48:23.821Z,1112
2017-03-23T09:49:24.183Z,1168
2017-03-23T09:50:24.175Z,1184
2017-03-23T09:51:23.883Z,1200
2017-03-23T09:52:24.205Z,1220
2017-03-23T09:53:23.902Z,1236
2017-03-23T09:54:24.233Z,1300
2017-03-23T09:55:24.258Z,1212
2017-03-23T09:56:24.271Z,1276
2017-03-23T09:57:24.286Z,1272
2017-03-23T09:58:24.297Z,1208
2017-03-23T09:59:24.317Z,1156
2017-03-23T10:00:24.029Z,1084
2017-03-23T10:01:24.353Z,1088
2017-03-23T10:02:24.374Z,1076
2017-03-23T10:03:24.386Z,1016
2017-03-23T10:04:24.403Z,1000
2017-03-23T10:05:24.412Z,992
2017-03-23T10:06:24.430Z,1032
2017-03-23T10:07:24.144Z,1020
2017-03-23T10:08:24.150Z,972
2017-03-23T10:09:24.168Z,924
2017-03-23T10:10:24.505Z,836
2017-03-23T10:11:24.530Z,872
2017-03-23T10:12:24.619Z,864
2017-03-23T10:13:24.250Z,844
2017-03-23T10:14:24.250Z,848
2017-03-23T10:15:24.268Z,848
2017-03-23T10:16:24.286Z,800
2017-03-23T10:17:24.615Z,940
2017-03-23T10:18:24.629Z,924
2017-03-23T10:19:24.018Z,908
2017-03-23T10:20:24.660Z,900
2017-03-23T10:21:24.367Z,908
2017-03-23T10:22:24.693Z,972
2017-03-23T10:23:24.400Z,1076
2017-03-23T10:24:24.418Z,1060
2017-03-23T10:25:24.745Z,1136
2017-03-23T10:26:24.782Z,1192
2017-03-23T10:27:24.780Z,1236
2017-03-23T10:28:24.481Z,1236
2017-03-23T10:29:24.811Z,1228
2017-03-23T10:30:24.830Z,1240
2017-03-23T10:31:24.536Z,1172
2017-03-23T10:32:24.876Z,1232
2017-03-23T10:33:24.885Z,1268
2017-03-23T10:34:24.938Z,1204
2017-03-23T10:35:24.597Z,1228
2017-03-23T10:36:24.920Z,1132
2017-03-23T10:37:24.322Z,1148
2017-03-23T10:38:24.957Z,1148
2017-03-23T10:39:24.346Z,1104
2017-03-23T10:40:24.680Z,1096
2017-03-23T10:41:25.012Z,1116
2017-03-23T10:42:25.024Z,1212
2017-03-23T10:43:25.041Z,1300
2017-03-23T10:44:25.097Z,1332
2017-03-23T10:45:25.075Z,1312
2017-03-23T10:46:25.097Z,1272
2017-03-23T10:47:24.793Z,1380
2017-03-23T10:48:25.128Z,1404
2017-03-23T10:49:24.831Z,1408
2017-03-23T10:50:25.154Z,1372
2017-03-23T10:51:25.172Z,1268
2017-03-23T10:52:25.187Z,1212
2017-03-23T10:53:25.201Z,1292
2017-03-23T10:54:25.230Z,1360
2017-03-23T10:55:25.286Z,1244
2017-03-23T10:56:25.259Z,1276
2017-03-23T10:57:25.286Z,1344
2017-03-23T10:58:25.285Z,1400
2017-03-23T10:59:25.305Z,1460
2017-03-23T11:00:25.321Z,1528
2017-03-23T11:01:25.341Z,1584
2017-03-23T11:02:25.358Z,1592
2017-03-23T11:03:25.376Z,1584
2017-03-23T11:04:25.391Z,1552
2017-03-23T11:05:25.405Z,1476
2017-03-23T11:06:25.421Z,1392
2017-03-23T11:07:25.440Z,1312
2017-03-23T11:08:25.472Z,1316
2017-03-23T11:09:25.507Z,1384
2017-03-23T11:10:25.495Z,1380
2017-03-23T11:11:25.506Z,1276
2017-03-23T11:12:25.533Z,1260
2017-03-23T11:13:25.537Z,1284
2017-03-23T11:14:25.573Z,1376
2017-03-23T11:15:25.574Z,1432
2017-03-23T11:16:25.593Z,1508
2017-03-23T11:17:25.625Z,1632
2017-03-23T11:18:25.625Z,1820
2017-03-23T11:19:25.643Z,1952
2017-03-23T11:20:25.655Z,2060
2017-03-23T11:21:25.362Z,2140
2017-03-23T11:22:25.693Z,2300
2017-03-23T11:23:25.392Z,2576
2017-03-23T11:24:25.411Z,2996
2017-03-23T11:25:25.838Z,3256
2017-03-23T11:26:25.443Z,3376
2017-03-23T11:27:25.855Z,3476
2017-03-23T11:28:25.169Z,3564
2017-03-23T11:29:25.493Z,3664
2017-03-23T11:30:25.513Z,3640
2017-03-23T11:31:25.221Z,3536
2017-03-23T11:32:25.549Z,3460
2017-03-23T11:33:25.565Z,3284
2017-03-23T11:34:25.617Z,3188
2017-03-23T11:35:25.607Z,3052
2017-03-23T11:36:25.300Z,3312
2017-03-23T11:37:25.633Z,3632
2017-03-23T11:38:25.650Z,3408
2017-03-23T11:39:25.666Z,2996
2017-03-23T11:40:26.019Z,2896
2017-03-23T11:41:26.028Z,2836
2017-03-23T11:42:26.139Z,2968
2017-03-23T11:43:25.847Z,2896
2017-03-23T11:44:26.151Z,2996
2017-03-23T11:45:25.884Z,2848
2017-03-23T11:46:25.892Z,2700
2017-03-23T11:47:26.191Z,2696
2017-03-23T11:48:25.899Z,2508
2017-03-23T11:49:26.086Z,2680
2017-03-23T11:50:25.954Z,2924
2017-03-23T11:51:25.561Z,2936
2017-03-23T11:52:25.986Z,2884
2017-03-23T11:53:26.219Z,3136
2017-03-23T11:54:25.304Z,3016
2017-03-23T11:55:25.632Z,2484
2017-03-23T11:56:26.291Z,2400
2017-03-23T11:57:25.826Z,2484
2017-03-23T11:58:26.307Z,2692
2017-03-23T11:59:26.325Z,2968
2017-03-23T12:00:26.344Z,3244
2017-03-23T12:01:25.851Z,3136
2017-03-23T12:02:26.377Z,2984
2017-03-23T12:03:26.091Z,2904
2017-03-23T12:04:26.102Z,2596
2017-03-23T12:05:26.116Z,2136
2017-03-23T12:06:26.448Z,1988
2017-03-23T12:07:26.464Z,2000
2017-03-23T12:08:26.169Z,2120
2017-03-23T12:09:26.500Z,2176
2017-03-23T12:10:26.521Z,2432
2017-03-23T12:11:26.534Z,2396
2017-03-23T12:12:26.578Z,2488
2017-03-23T12:13:26.581Z,2648
2017-03-23T12:14:26.597Z,2672
2017-03-23T12:15:26.645Z,2740
2017-03-23T12:16:26.317Z,2748
2017-03-23T12:17:26.644Z,2664
2017-03-23T12:18:26.780Z,2364
2017-03-23T12:19:26.057Z,2156
2017-03-23T12:20:26.386Z,2064
2017-03-23T12:21:26.818Z,2156
2017-03-23T12:22:26.422Z,2356
2017-03-23T12:23:26.848Z,2116
2017-03-23T12:24:26.856Z,2548
2017-03-23T12:25:25.852Z,2208
2017-03-23T12:26:26.900Z,1940
2017-03-23T12:27:26.510Z,1540
2017-03-23T12:28:26.941Z,1432
2017-03-23T12:29:26.547Z,1340
2017-03-23T12:30:26.961Z,1436
2017-03-23T12:31:26.591Z,1796
2017-03-23T12:32:26.987Z,2148
2017-03-23T12:33:26.996Z,2508
2017-03-23T12:34:27.004Z,2448
2017-03-23T12:35:27.004Z,1956
2017-03-23T12:36:27.052Z,1808
2017-03-23T12:37:26.760Z,2464
2017-03-23T12:38:27.069Z,2116
2017-03-23T12:39:27.069Z,1556
2017-03-23T12:40:27.088Z,1788
2017-03-23T12:41:27.086Z,1732
2017-03-23T12:42:27.100Z,1920
2017-03-23T12:43:27.125Z,2108
2017-03-23T12:44:27.139Z,2128
2017-03-23T12:45:26.952Z,2136
2017-03-23T12:46:27.173Z,2076
2017-03-23T12:47:27.189Z,2024
2017-03-23T12:48:27.204Z,2148
2017-03-23T12:49:27.225Z,2196
2017-03-23T12:50:27.240Z,2016
2017-03-23T12:51:27.297Z,1936
2017-03-23T12:52:27.282Z,1808
2017-03-23T12:53:27.298Z,1612
2017-03-23T12:54:27.051Z,1424
2017-03-23T12:55:27.384Z,1276
2017-03-23T12:56:27.359Z,1324
2017-03-23T12:57:27.373Z,1344
2017-03-23T12:58:27.391Z,1320
2017-03-23T12:59:27.410Z,1272
2017-03-23T13:00:27.426Z,1256
2017-03-23T13:01:27.447Z,1240
2017-03-23T13:02:27.483Z,1444
2017-03-23T13:03:27.166Z,1752
2017-03-23T13:04:27.510Z,1992
2017-03-23T13:05:27.522Z,2416
2017-03-23T13:06:27.542Z,2836
2017-03-23T13:07:27.569Z,3028
2017-03-23T13:08:27.692Z,3064
2017-03-23T13:09:27.699Z,2868
2017-03-23T13:10:27.723Z,2548
2017-03-23T13:11:27.731Z,2172
2017-03-23T13:12:27.740Z,2432
2017-03-23T13:13:27.366Z,2796
2017-03-23T13:14:27.757Z,2952
2017-03-23T13:15:27.892Z,2964
2017-03-23T13:16:27.765Z,2936
2017-03-23T13:17:27.773Z,2828
2017-03-23T13:18:27.782Z,2732
2017-03-23T13:19:27.473Z,2524
2017-03-23T13:20:27.488Z,2272
2017-03-23T13:21:27.510Z,2072
2017-03-23T13:22:26.905Z,1880
2017-03-23T13:23:27.857Z,1772
2017-03-23T13:24:27.682Z,1844
2017-03-23T13:25:27.991Z,2088
2017-03-23T13:26:28.000Z,2412
2017-03-23T13:27:27.691Z,2676
2017-03-23T13:28:27.700Z,2864
2017-03-23T13:29:28.009Z,2952
2017-03-23T13:30:28.007Z,3052
2017-03-23T13:31:28.017Z,3180
2017-03-23T13:32:28.077Z,3164
2017-03-23T13:33:28.075Z,3076
2017-03-23T13:34:28.076Z,2980
2017-03-23T13:35:27.879Z,2692
2017-03-23T13:36:28.104Z,2164
2017-03-23T13:37:27.869Z,1592
2017-03-23T13:38:28.145Z,1212
2017-03-23T13:39:28.164Z,1028
2017-03-23T13:40:28.195Z,940
2017-03-23T13:41:28.203Z,884
2017-03-23T13:42:27.994Z,840
2017-03-23T13:43:27.992Z,836
2017-03-23T13:44:28.002Z,884
2017-03-23T13:45:28.347Z,920
2017-03-23T13:46:28.318Z,936
2017-03-23T13:47:28.319Z,984
2017-03-23T13:48:28.339Z,1080
2017-03-23T13:49:28.045Z,1184
2017-03-23T13:50:28.376Z,1272
2017-03-23T13:51:28.404Z,1304
2017-03-23T13:52:28.419Z,1280
2017-03-23T13:53:28.434Z,1248
2017-03-23T13:54:28.451Z,1220
2017-03-23T13:55:28.477Z,1212
2017-03-23T13:56:28.502Z,1248
2017-03-23T13:57:28.517Z,1352